createdAt,value
2017-11-25T00:01:28.463Z,71.30
2017-11-25T00:03:56.461Z,71.10
2017-11-25T00:06:24.760Z,71.10
2017-11-25T00:08:53.675Z,71.10
2017-11-25T00:11:21.953Z,71.10
2017-11-25T00:13:50.899Z,71.10
2017-11-25T00:16:19.248Z,71.00
2017-11-25T00:18:46.765Z,70.90
2017-11-25T00:21:14.285Z,71.00
2017-11-25T00:23:42.417Z,70.80
2017-11-25T00:26:10.489Z,70.80
2017-11-25T00:28:38.045Z,71.00
2017-11-25T00:31:05.634Z,71.10
2017-11-25T00:33:33.166Z,71.10
2017-11-25T00:36:00.735Z,71.20
2017-11-25T00:38:28.306Z,71.30
2017-11-25T00:40:55.892Z,71.10
2017-11-25T00:43:23.894Z,70.90
2017-11-25T00:45:51.436Z,71.00
2017-11-25T00:48:18.933Z,71.10
2017-11-25T00:50:46.520Z,71.10
2017-11-25T00:53:14.739Z,71.10
2017-11-25T00:55:42.272Z,71.00
2017-11-25T00:58:10.577Z,70.90
2017-11-25T01:00:38.096Z,70.90
2017-11-25T01:03:05.662Z,71.00
2017-11-25T01:05:33.384Z,70.80
2017-11-25T01:08:01.667Z,70.70
2017-11-25T01:10:29.215Z,70.70
2017-11-25T01:12:57.382Z,70.70
2017-11-25T01:15:25.725Z,70.70
2017-11-25T01:17:54.094Z,71.10
2017-11-25T01:20:21.784Z,71.10
2017-11-25T01:22:49.368Z,71.10
2017-11-25T01:25:16.906Z,71.30
2017-11-25T01:27:44.429Z,71.40
2017-11-25T01:30:11.970Z,71.20
2017-11-25T01:32:39.527Z,71.20
2017-11-25T01:35:07.089Z,72.10
2017-11-25T01:37:34.637Z,71.20
2017-11-25T01:40:02.152Z,71.20
2017-11-25T01:42:29.761Z,71.30
2017-11-25T01:44:58.142Z,71.30
2017-11-25T01:47:25.702Z,71.20
2017-11-25T01:49:53.818Z,71.20
2017-11-25T01:52:22.163Z,70.80
2017-11-25T01:54:49.697Z,70.80
2017-11-25T01:57:17.273Z,70.80
2017-11-25T01:59:44.809Z,70.80
2017-11-25T02:02:12.799Z,70.80
2017-11-25T02:04:40.444Z,70.80
2017-11-25T02:07:08.722Z,70.70
2017-11-25T02:09:36.295Z,70.40
2017-11-25T02:12:03.868Z,70.40
2017-11-25T02:14:32.337Z,70.30
2017-11-25T02:17:00.536Z,70.20
2017-11-25T02:19:29.629Z,70.30
2017-11-25T02:21:57.196Z,70.30
2017-11-25T02:24:24.755Z,70.30
2017-11-25T02:26:53.947Z,70.40
2017-11-25T02:29:21.574Z,70.50
2017-11-25T02:31:49.408Z,70.40
2017-11-25T02:34:16.950Z,70.40
2017-11-25T02:36:44.714Z,70.60
2017-11-25T02:39:12.793Z,70.80
2017-11-25T02:41:41.189Z,70.50
2017-11-25T02:44:09.541Z,70.30
2017-11-25T02:46:37.083Z,70.30
2017-11-25T02:49:04.624Z,70.30
2017-11-25T02:51:32.179Z,70.30
2017-11-25T02:53:59.738Z,70.50
2017-11-25T02:56:27.405Z,70.30
2017-11-25T02:58:54.999Z,70.30
2017-11-25T03:01:23.336Z,70.30
2017-11-25T03:03:50.993Z,70.20
2017-11-25T03:06:18.562Z,69.90
2017-11-25T03:08:46.858Z,70.00
2017-11-25T03:11:15.312Z,70.20
2017-11-25T03:13:44.204Z,70.00
2017-11-25T03:16:11.853Z,69.80
2017-11-25T03:18:39.425Z,69.80
2017-11-25T03:21:06.926Z,69.90
2017-11-25T03:23:37.098Z,70.20
2017-11-25T03:26:04.635Z,70.20
2017-11-25T03:28:32.966Z,70.50
2017-11-25T03:31:00.535Z,70.50
2017-11-25T03:33:28.126Z,70.50
2017-11-25T03:35:55.642Z,71.30
2017-11-25T03:38:23.217Z,70.50
2017-11-25T03:40:51.648Z,70.40
2017-11-25T03:43:19.151Z,70.30
2017-11-25T03:45:47.462Z,70.40
2017-11-25T03:48:15.749Z,70.70
2017-11-25T03:50:44.067Z,70.90
2017-11-25T03:53:11.612Z,70.80
2017-11-25T03:55:39.137Z,70.90
2017-11-25T03:58:06.661Z,71.00
2017-11-25T04:00:34.224Z,70.90
2017-11-25T04:03:01.757Z,71.10
2017-11-25T04:05:30.474Z,71.20
2017-11-25T04:07:59.539Z,71.10
2017-11-25T04:10:27.072Z,71.90
2017-11-25T04:12:56.447Z,71.10
2017-11-25T04:15:24.754Z,71.20
2017-11-25T04:17:52.310Z,71.20
2017-11-25T04:20:19.833Z,71.40
2017-11-25T04:22:47.395Z,71.40
2017-11-25T04:25:14.921Z,71.60
2017-11-25T04:27:42.461Z,71.70
2017-11-25T04:30:10.032Z,71.70
2017-11-25T04:32:37.624Z,71.70
2017-11-25T04:35:05.967Z,71.70
2017-11-25T04:37:33.490Z,71.70
2017-11-25T04:40:01.047Z,71.50
2017-11-25T04:42:28.581Z,71.50
2017-11-25T04:44:56.122Z,71.40
2017-11-25T04:47:23.828Z,71.30
2017-11-25T04:49:51.433Z,71.20
2017-11-25T04:52:19.676Z,71.30
2017-11-25T04:54:47.853Z,71.40
2017-11-25T04:57:15.421Z,71.30
2017-11-25T04:59:43.766Z,71.30
2017-11-25T05:02:12.223Z,71.20
2017-11-25T05:04:39.836Z,71.10
2017-11-25T05:07:07.408Z,71.40
2017-11-25T05:09:34.997Z,71.40
2017-11-25T05:12:06.315Z,71.60
2017-11-25T05:14:34.950Z,72.40
2017-11-25T05:17:02.510Z,71.70
2017-11-25T05:19:31.058Z,71.80
2017-11-25T05:21:58.691Z,72.00
2017-11-25T05:24:27.152Z,72.00
2017-11-25T05:26:54.692Z,72.30
2017-11-25T05:29:22.283Z,72.30
2017-11-25T05:31:50.240Z,72.40
2017-11-25T05:34:19.342Z,72.60
2017-11-25T05:36:46.835Z,72.40
2017-11-25T05:39:14.399Z,72.60
2017-11-25T05:41:43.018Z,72.70
2017-11-25T05:44:10.715Z,72.70
2017-11-25T05:46:38.277Z,72.80
2017-11-25T05:49:05.829Z,72.80
2017-11-25T05:51:37.277Z,72.70
2017-11-25T05:54:04.825Z,72.90
2017-11-25T05:56:33.405Z,73.00
2017-11-25T05:59:00.970Z,72.90
2017-11-25T06:01:29.285Z,73.10
2017-11-25T06:03:56.809Z,73.20
2017-11-25T06:06:24.850Z,73.10
2017-11-25T06:08:54.330Z,73.00
2017-11-25T06:11:21.855Z,73.00
2017-11-25T06:13:49.441Z,72.70
2017-11-25T06:16:17.060Z,72.80
2017-11-25T06:18:44.648Z,72.90
2017-11-25T06:21:12.554Z,72.70
2017-11-25T06:23:40.908Z,72.70
2017-11-25T06:26:08.590Z,72.80
2017-11-25T06:28:36.320Z,73.00
2017-11-25T06:31:03.959Z,72.80
2017-11-25T06:33:32.256Z,72.90
2017-11-25T06:35:59.790Z,72.90
2017-11-25T06:38:28.178Z,73.00
2017-11-25T06:40:56.541Z,73.00
2017-11-25T06:43:24.127Z,73.00
2017-11-25T06:45:52.466Z,73.00
2017-11-25T06:48:20.345Z,73.10
2017-11-25T06:50:48.180Z,73.10
2017-11-25T06:53:16.505Z,73.20
2017-11-25T06:55:44.081Z,73.00
2017-11-25T06:58:11.625Z,72.90
2017-11-25T07:00:39.310Z,72.90
2017-11-25T07:03:06.814Z,72.90
2017-11-25T07:05:35.910Z,73.90
2017-11-25T07:08:03.433Z,73.10
2017-11-25T07:10:31.412Z,73.00
2017-11-25T07:12:58.924Z,72.90
2017-11-25T07:15:27.212Z,72.90
2017-11-25T07:17:55.857Z,73.10
2017-11-25T07:20:23.409Z,73.00
2017-11-25T07:22:50.941Z,73.00
2017-11-25T07:25:18.607Z,73.00
2017-11-25T07:27:46.184Z,73.00
2017-11-25T07:30:13.682Z,73.00
2017-11-25T07:32:41.977Z,72.80
2017-11-25T07:35:09.952Z,72.90
2017-11-25T07:37:37.443Z,72.90
2017-11-25T07:40:05.859Z,72.90
2017-11-25T07:42:33.378Z,72.80
2017-11-25T07:45:00.955Z,72.90
2017-11-25T07:47:28.505Z,73.00
2017-11-25T07:49:57.789Z,73.00
2017-11-25T07:52:27.414Z,72.90
2017-11-25T07:54:55.062Z,72.90
2017-11-25T07:57:22.629Z,72.70
2017-11-25T07:59:50.192Z,72.80
2017-11-25T08:02:17.940Z,72.80
2017-11-25T08:04:45.479Z,72.80
2017-11-25T08:07:12.993Z,72.70
2017-11-25T08:09:40.547Z,72.70
2017-11-25T08:12:09.669Z,72.70
2017-11-25T08:14:37.311Z,72.80
2017-11-25T08:17:05.593Z,72.90
2017-11-25T08:19:33.316Z,73.00
2017-11-25T08:22:01.591Z,73.10
2017-11-25T08:24:29.185Z,73.10
2017-11-25T08:26:56.803Z,73.20
2017-11-25T08:29:24.438Z,73.10
2017-11-25T08:31:52.920Z,73.20
2017-11-25T08:34:21.327Z,73.20
2017-11-25T08:36:48.891Z,73.20
2017-11-25T08:39:18.642Z,73.20
2017-11-25T08:51:32.012Z,73.80
2017-11-25T08:54:01.132Z,73.70
2017-11-25T08:56:28.705Z,73.90
2017-11-25T08:58:56.386Z,73.90
2017-11-25T09:01:25.540Z,73.90
2017-11-25T09:03:57.852Z,73.90
2017-11-25T09:06:28.833Z,73.70
2017-11-25T09:08:57.021Z,73.60
2017-11-25T09:11:26.526Z,73.50
2017-11-25T09:13:56.903Z,73.50
2017-11-25T09:16:25.612Z,73.40
2017-11-25T09:18:54.117Z,73.30
2017-11-25T09:21:22.790Z,73.10
2017-11-25T09:23:50.453Z,73.00
2017-11-25T09:26:19.564Z,72.70
2017-11-25T09:28:48.954Z,72.80
2017-11-25T09:31:18.431Z,72.80
2017-11-25T09:33:47.021Z,72.70
2017-11-25T09:36:16.047Z,72.60
2017-11-25T09:38:47.172Z,72.70
2017-11-25T09:41:16.195Z,72.60
2017-11-25T09:43:43.733Z,72.70
2017-11-25T09:46:14.239Z,72.70
2017-11-25T09:48:43.899Z,72.50
2017-11-25T09:51:13.432Z,72.60
2017-11-25T09:53:43.366Z,72.40
2017-11-25T09:56:11.519Z,72.40
2017-11-25T09:58:42.435Z,72.30
2017-11-25T10:01:12.356Z,72.30
2017-11-25T10:03:41.905Z,73.00
2017-11-25T10:06:10.315Z,72.30
2017-11-25T10:08:38.696Z,72.30
2017-11-25T10:11:07.020Z,72.20
2017-11-25T10:13:35.105Z,72.30
2017-11-25T10:28:59.210Z,72.20
2017-11-25T10:31:27.887Z,73.20
2017-11-25T10:33:55.560Z,73.00
2017-11-25T10:36:25.156Z,72.70
2017-11-25T10:38:54.735Z,72.70
2017-11-25T10:41:24.153Z,72.80
2017-11-25T10:43:56.332Z,72.20
2017-11-25T10:46:26.627Z,72.00
2017-11-25T10:48:57.003Z,72.20
2017-11-25T10:51:25.121Z,72.20
2017-11-25T10:53:53.547Z,72.30
2017-11-25T10:56:24.454Z,72.50
2017-11-25T10:58:55.048Z,72.10
2017-11-25T11:01:23.290Z,71.50
2017-11-25T11:03:52.643Z,71.20
2017-11-25T11:06:22.525Z,71.00
2017-11-25T11:08:51.781Z,70.70
2017-11-25T11:11:21.229Z,70.30
2017-11-25T11:13:50.208Z,70.50
2017-11-25T11:16:18.536Z,70.10
2017-11-25T11:18:48.205Z,70.20
2017-11-25T11:21:18.622Z,70.10
2017-11-25T11:23:47.696Z,70.40
2017-11-25T11:26:16.353Z,70.60
2017-11-25T11:28:45.416Z,70.70
2017-11-25T11:31:15.672Z,70.70
2017-11-25T11:33:47.233Z,70.70
2017-11-25T11:36:17.821Z,70.70
2017-11-25T11:38:47.786Z,70.40
2017-11-25T11:41:15.901Z,70.00
2017-11-25T11:43:43.472Z,70.10
2017-11-25T11:46:12.429Z,69.10
2017-11-25T11:48:41.393Z,69.10
2017-11-25T11:51:10.500Z,69.10
2017-11-25T11:53:40.473Z,69.00
2017-11-25T11:56:09.486Z,69.20
2017-11-25T11:58:39.922Z,69.20
2017-11-25T12:01:09.551Z,69.30
2017-11-25T12:03:37.556Z,69.30
2017-11-25T12:06:05.937Z,68.70
2017-11-25T12:08:34.534Z,68.70
2017-11-25T12:11:04.452Z,68.40
2017-11-25T12:13:33.405Z,68.50
2017-11-25T12:16:01.077Z,68.40
2017-11-25T12:18:31.501Z,68.40
2017-11-25T12:21:00.709Z,68.40
2017-11-25T12:23:30.094Z,68.20
2017-11-25T12:25:59.092Z,68.10
2017-11-25T12:28:27.313Z,68.20
2017-11-25T12:30:56.456Z,68.20
2017-11-25T12:33:25.598Z,68.20
2017-11-25T12:35:55.582Z,68.40
2017-11-25T12:38:26.084Z,68.40
2017-11-25T12:40:54.765Z,68.50
2017-11-25T12:43:23.834Z,68.40
2017-11-25T12:45:53.633Z,68.20
2017-11-25T12:48:22.567Z,68.10
2017-11-25T12:50:50.877Z,68.20
2017-11-25T12:53:20.397Z,68.00
2017-11-25T12:55:50.045Z,68.00
2017-11-25T12:58:18.410Z,68.00
2017-11-25T13:00:48.564Z,67.90
2017-11-25T13:03:18.600Z,67.90
2017-11-25T13:05:47.137Z,67.90
2017-11-25T13:08:16.441Z,68.00
2017-11-25T13:10:44.592Z,68.00
2017-11-25T13:13:12.943Z,67.90
2017-11-25T13:15:41.627Z,68.10
2017-11-25T13:18:09.442Z,68.10
2017-11-25T13:20:40.614Z,68.40
2017-11-25T13:23:10.355Z,68.40
2017-11-25T13:25:40.172Z,68.50
2017-11-25T13:28:09.037Z,68.40
2017-11-25T13:30:37.710Z,68.50
2017-11-25T13:33:06.000Z,68.60
2017-11-25T13:35:34.945Z,68.70
2017-11-25T13:38:07.882Z,68.80
2017-11-25T13:40:36.776Z,68.90
2017-11-25T13:43:06.384Z,69.10
2017-11-25T13:45:34.563Z,69.30
2017-11-25T13:48:02.091Z,69.60
2017-11-25T13:50:31.190Z,69.80
2017-11-25T13:53:00.408Z,69.80
2017-11-25T13:55:29.353Z,70.20
2017-11-25T13:57:58.993Z,70.00
2017-11-25T14:00:26.560Z,70.40
2017-11-25T14:02:56.598Z,71.10
2017-11-25T14:05:24.965Z,72.60
2017-11-25T14:07:55.647Z,73.40
2017-11-25T14:10:25.777Z,74.30
2017-11-25T14:12:54.417Z,74.40
2017-11-25T14:15:22.626Z,74.30
2017-11-25T14:17:51.749Z,74.90
2017-11-25T14:20:19.717Z,73.90
2017-11-25T14:22:48.028Z,73.70
2017-11-25T14:25:16.466Z,73.90
2017-11-25T14:27:46.904Z,72.30
2017-11-25T14:30:15.469Z,72.20
2017-11-25T14:32:44.958Z,72.20
2017-11-25T14:35:14.886Z,71.20
2017-11-25T14:37:43.817Z,71.20
2017-11-25T14:40:11.367Z,71.20
2017-11-25T14:42:40.304Z,71.70
2017-11-25T14:45:09.183Z,71.40
2017-11-25T14:47:37.587Z,71.50
2017-11-25T14:50:08.477Z,71.30
2017-11-25T14:52:37.514Z,70.40
2017-11-25T14:55:05.881Z,70.30
2017-11-25T14:57:33.904Z,69.60
2017-11-25T15:00:04.809Z,69.60
2017-11-25T15:02:32.649Z,69.10
2017-11-25T15:05:02.153Z,69.40
2017-11-25T15:07:32.281Z,69.60
2017-11-25T15:10:02.707Z,69.50
2017-11-25T15:12:31.308Z,69.70
2017-11-25T15:14:59.716Z,70.00
2017-11-25T15:17:28.428Z,69.80
2017-11-25T15:19:59.148Z,69.30
2017-11-25T15:22:28.885Z,69.40
2017-11-25T15:24:57.558Z,69.30
2017-11-25T15:27:26.737Z,68.50
2017-11-25T15:29:54.760Z,68.60
2017-11-25T15:32:23.798Z,68.00
2017-11-25T15:34:53.798Z,68.00
2017-11-25T15:37:23.497Z,67.90
2017-11-25T15:52:47.915Z,68.10
2017-11-25T15:55:17.489Z,68.90
2017-11-25T15:57:47.546Z,68.80
2017-11-25T16:00:16.990Z,68.60
2017-11-25T16:02:46.280Z,68.20
2017-11-25T16:05:15.356Z,68.00
2017-11-25T16:07:44.224Z,68.00
2017-11-25T16:10:13.340Z,67.80
2017-11-25T16:12:42.154Z,67.90
2017-11-25T16:15:10.262Z,68.10
2017-11-25T16:17:39.210Z,67.70
2017-11-25T16:20:09.908Z,67.50
2017-11-25T16:22:41.695Z,67.90
2017-11-25T16:25:11.024Z,67.90
2017-11-25T16:27:38.656Z,68.00
2017-11-25T16:30:08.219Z,68.00
2017-11-25T16:32:37.023Z,68.00
2017-11-25T16:35:08.983Z,67.90
2017-11-25T16:37:37.340Z,67.80
2017-11-25T16:40:06.421Z,67.70
2017-11-25T16:42:36.697Z,68.10
2017-11-25T16:45:07.552Z,67.80
2017-11-25T16:47:36.875Z,68.50
2017-11-25T16:50:04.886Z,68.60
2017-11-25T16:52:34.851Z,69.20
2017-11-25T16:55:03.244Z,69.80
2017-11-25T16:57:32.068Z,69.20
2017-11-25T16:59:59.917Z,69.10
2017-11-25T17:02:28.979Z,69.00
2017-11-25T17:04:57.281Z,69.10
2017-11-25T17:07:26.261Z,68.70
2017-11-25T17:09:58.228Z,68.30
2017-11-25T17:12:26.984Z,67.80
2017-11-25T17:14:54.498Z,67.40
2017-11-25T17:17:23.078Z,67.40
2017-11-25T17:19:53.346Z,67.20
2017-11-25T17:22:22.044Z,66.90
2017-11-25T17:24:52.065Z,66.90
2017-11-25T17:27:20.927Z,66.90
2017-11-25T17:29:49.649Z,66.60
2017-11-25T17:32:19.408Z,66.30
2017-11-25T17:34:48.320Z,65.90
2017-11-25T17:37:16.838Z,65.60
2017-11-25T17:39:45.143Z,65.60
2017-11-25T17:42:14.127Z,65.30
2017-11-25T17:44:43.435Z,65.40
2017-11-25T17:47:12.756Z,65.40
2017-11-25T17:49:41.076Z,65.50
2017-11-25T17:52:11.553Z,65.70
2017-11-25T17:54:40.073Z,65.40
2017-11-25T17:57:07.649Z,65.40
2017-11-25T17:59:36.891Z,65.50
2017-11-25T18:02:05.219Z,65.70
2017-11-25T18:04:34.951Z,65.90
2017-11-25T18:07:05.057Z,65.70
2017-11-25T18:09:34.066Z,65.40
2017-11-25T18:12:02.466Z,65.40
2017-11-25T18:14:32.164Z,65.70
2017-11-25T18:16:59.709Z,65.70
2017-11-25T18:19:29.765Z,65.70
2017-11-25T18:22:01.311Z,66.30
2017-11-25T18:24:29.857Z,65.50
2017-11-25T18:26:58.725Z,65.60
2017-11-25T18:29:27.079Z,65.80
2017-11-25T18:31:56.429Z,66.20
2017-11-25T18:34:24.861Z,66.40
2017-11-25T18:36:53.190Z,66.30
2017-11-25T18:39:21.983Z,66.70
2017-11-25T18:41:50.020Z,66.90
2017-11-25T18:44:20.702Z,66.70
2017-11-25T18:46:49.631Z,66.50
2017-11-25T18:49:19.320Z,66.60
2017-11-25T18:51:47.637Z,66.60
2017-11-25T18:54:16.420Z,66.90
2017-11-25T18:56:45.612Z,67.10
2017-11-25T18:59:14.252Z,67.20
2017-11-25T19:01:41.841Z,67.40
2017-11-25T19:04:14.095Z,67.90
2017-11-25T19:06:44.601Z,67.80
2017-11-25T19:09:14.304Z,67.60
2017-11-25T19:11:43.800Z,67.60
2017-11-25T19:14:13.467Z,67.60
2017-11-25T19:16:43.524Z,67.60
2017-11-25T19:19:11.876Z,67.50
2017-11-25T19:21:40.673Z,67.70
2017-11-25T19:24:09.399Z,67.70
2017-11-25T19:26:40.130Z,67.40
2017-11-25T19:29:09.436Z,67.50
2017-11-25T19:31:39.044Z,67.40
2017-11-25T19:34:07.552Z,67.70
2017-11-25T19:36:37.392Z,67.60
2017-11-25T19:39:08.483Z,67.50
2017-11-25T19:41:37.108Z,67.50
2017-11-25T19:44:05.830Z,67.40
2017-11-25T19:46:34.779Z,67.20
2017-11-25T19:49:03.566Z,67.10
2017-11-25T19:51:32.034Z,67.00
2017-11-25T19:54:00.998Z,67.00
2017-11-25T19:56:29.279Z,66.80
2017-11-25T19:59:00.315Z,66.60
2017-11-25T20:01:28.108Z,66.50
2017-11-25T20:03:56.568Z,66.40
2017-11-25T20:06:25.736Z,66.60
2017-11-25T20:08:54.273Z,66.50
2017-11-25T20:11:23.901Z,66.40
2017-11-25T20:13:53.047Z,66.10
2017-11-25T20:16:21.260Z,66.10
2017-11-25T20:18:51.129Z,66.00
2017-11-25T20:21:21.451Z,66.20
2017-11-25T20:23:49.950Z,66.10
2017-11-25T20:26:19.020Z,66.40
2017-11-25T20:28:47.356Z,66.40
2017-11-25T20:31:16.710Z,66.40
2017-11-25T20:33:47.081Z,66.10
2017-11-25T20:36:15.572Z,66.00
2017-11-25T20:38:44.798Z,66.30
2017-11-25T20:41:14.234Z,66.30
2017-11-25T20:43:42.347Z,66.10
2017-11-25T20:46:11.480Z,66.00
2017-11-25T20:48:42.285Z,65.50
2017-11-25T20:51:13.573Z,65.60
2017-11-25T20:53:44.024Z,65.60
2017-11-25T20:56:12.801Z,65.50
2017-11-25T20:58:40.866Z,65.20
2017-11-25T21:01:09.415Z,65.30
2017-11-25T21:03:38.287Z,65.20
2017-11-25T21:06:06.738Z,65.10
2017-11-25T21:08:35.601Z,65.10
2017-11-25T21:11:04.540Z,64.90
2017-11-25T21:13:34.016Z,64.90
2017-11-25T21:16:03.273Z,65.00
2017-11-25T21:18:32.124Z,64.80
2017-11-25T21:21:01.933Z,64.60
2017-11-25T21:23:32.351Z,64.50
2017-11-25T21:26:00.886Z,64.60
2017-11-25T21:28:31.475Z,64.80
2017-11-25T21:31:00.107Z,64.80
2017-11-25T21:33:29.553Z,64.70
2017-11-25T21:35:58.321Z,64.70
2017-11-25T21:38:28.166Z,64.50
2017-11-25T21:40:58.096Z,64.40
2017-11-25T21:43:28.470Z,64.10
2017-11-25T21:45:56.736Z,64.00
2017-11-25T21:48:26.089Z,64.20
2017-11-25T21:50:55.132Z,63.80
2017-11-25T21:53:24.470Z,63.90
2017-11-25T21:55:54.564Z,63.80
2017-11-25T21:58:24.821Z,63.90
2017-11-25T22:00:53.351Z,63.90
2017-11-25T22:03:21.771Z,64.10
2017-11-25T22:05:50.634Z,64.40
2017-11-25T22:08:19.590Z,64.40
2017-11-25T22:10:47.719Z,64.40
2017-11-25T22:13:16.887Z,64.60
2017-11-25T22:15:45.815Z,64.50
2017-11-25T22:18:14.614Z,64.50
2017-11-25T22:20:42.658Z,64.10
2017-11-25T22:23:12.559Z,64.10
2017-11-25T22:25:43.841Z,64.30
2017-11-25T22:28:12.072Z,64.30
2017-11-25T22:30:43.828Z,64.20
2017-11-25T22:33:12.234Z,64.60
2017-11-25T22:35:42.883Z,65.20
2017-11-25T22:38:12.509Z,64.20
2017-11-25T22:40:40.135Z,64.10
2017-11-25T22:43:10.588Z,63.90
2017-11-25T22:45:39.982Z,63.90
2017-11-25T22:48:08.248Z,63.90
2017-11-25T22:50:38.161Z,63.80
2017-11-25T22:53:07.138Z,63.70
2017-11-25T22:55:35.285Z,63.70
2017-11-25T22:58:04.011Z,63.50
2017-11-25T23:00:33.085Z,63.80
2017-11-25T23:03:01.375Z,63.70
2017-11-25T23:05:30.758Z,64.00
2017-11-25T23:08:01.116Z,63.80
2017-11-25T23:10:34.981Z,63.60
2017-11-25T23:13:04.244Z,63.50
2017-11-25T23:15:33.361Z,63.60
2017-11-25T23:18:02.239Z,63.80
2017-11-25T23:20:32.368Z,63.90
2017-11-25T23:23:01.385Z,64.10
2017-11-25T23:25:30.141Z,64.50
2017-11-25T23:27:59.424Z,64.40
2017-11-25T23:30:28.240Z,64.60
2017-11-25T23:32:57.509Z,64.60
2017-11-25T23:35:27.132Z,64.40
2017-11-25T23:37:55.454Z,64.30
2017-11-25T23:40:25.917Z,63.80
2017-11-25T23:42:55.790Z,63.50
2017-11-25T23:45:24.441Z,63.80
2017-11-25T23:47:53.857Z,63.80
2017-11-25T23:50:24.237Z,64.00
2017-11-25T23:52:54.682Z,64.50
2017-11-25T23:55:24.299Z,64.60
2017-11-25T23:57:52.719Z,64.60
